Hit Tracker is now ESPN Home Run Tracker! Hit Tracker founder Greg Rybarczyk is now collaborating with the ESPN Stats & Information Group to continue tracking all MLB home runs, and helping baseball fans know "How Far It Really Went!™" Please credit any information on this site to ESPN Stats & Information Group. For more information and analysis on home runs, please contact founder Greg Rybarczyk. E-Mail ESPN Home Run Tracker
Main Page | Ballparks | Park Overlays | Glossary | Highlight Homers | Feedback | Bio | 3 Types of HR's | AAA Home Run Derby Last Updated: July 27, 2015, 11:25 pm PST
Welcome to the ESPN Home Run Tracker! Check out the ESPN MLB Scoreboard throughout the 2015 season! Contact us at grybar@hittrackeronline.com.
Season:
Ballpark detail for Coors Field
Ballpark # of Home Runs HR per game Avg.
True
Distance
Avg.
Speed
Off
Bat
Avg.
Std.
Dist.
Coors Field 125 2.98 417.5 104.8 407.1

Scatter Plot of Home Runs Coors Field
 Overlay Ballpark:
Without range rings   With range rings

2015 Season Home Runs for Coors Field
Click headers to sort
Date Video Path Hitter Hitter
Team
Pitcher Pitcher
Team
 ^
INN Ballpark Type/
Luck
True
Dist.
Speed
Off
Bat
Elev.
Angle
Horiz.
Angle
Apex Impact Due To: Std.
Dist.
#
Parks
Wind Temp. Alt.
07/20/15 Video View Tulowitzki, Troy COL Martinez, Nick TEX 2 Coors Field PL 446 106.5 29.3 103.5 101 6 0 14 427 30
07/22/15 Video View Hundley, Nick COL Scheppers, Tanner TEX 8 Coors Field JE 399 99.3 29.5 104.4 89 -3 2 11 387 21
07/22/15 Video View Gonzalez, Carlos COL Scheppers, Tanner TEX 8 Coors Field PL 398 108.8 24.3 60.7 64 -1 1 7 391 30
06/08/15 Video View Tulowitzki, Troy COL Lackey, John STL 1 Coors Field JE 386 110.1 21.8 119.0 51 2 0 5 378 28
06/08/15 Video View Arenado, Nolan COL Lackey, John STL 4 Coors Field ND 426 103.8 31.5 110.2 101 8 2 16 401 30
06/09/15 Video View Arenado, Nolan COL Wacha, Michael STL 6 Coors Field PL 430 103.7 32.1 101.8 116 0 1 19 410 30
06/10/15 Video View Paulsen, Ben COL Martinez, Carlos STL 7 Coors Field JE 429 107.9 23.5 99.2 74 -2 0 4 425 30
04/25/15 Video View Tulowitzki, Troy COL Hudson, Tim SF 3 Coors Field ND 421 108.8 29.0 119.0 91 -5 -1 12 414 30
04/25/15 Video View Gonzalez, Carlos COL Hudson, Tim SF 6 Coors Field JE 429 103.2 27.6 88.0 96 -2 -1 10 422 26
04/24/15 Video View Blackmon, Charlie COL Heston, Chris SF 3 Coors Field JE/L 424 107.7 21.0 93.4 66 3 -1 0 420 21
05/22/15 Video View LeMahieu, DJ COL Kontos, Geroge SF 7 Coors Field JE/L 378 97.9 28.2 72.3 78 0 -2 8 371 9
05/23/15 Video View Paulsen, Ben COL Heston, Chris SF 2 Coors Field JE 427 105.5 23.5 91.4 75 0 -1 3 424 26
05/23/15 Video View Blackmon, Charlie COL Heston, Chris SF 5 Coors Field PL 411 99.7 31.7 82.4 106 1 -3 15 397 20
05/23/15 Video View Hundley, Nick COL Heston, Chris SF 5 Coors Field PL 423 105.5 33.6 107.8 127 -3 -4 23 406 30
05/23/15 Video View Descalso, Daniel COL Petit, Yusmeiro SF 6 Coors Field JE 377 96.8 31.0 71.8 90 -1 -15 -3 381 26
05/24/15 Video View Arenado, Nolan COL Machi, Jean SF 4 Coors Field PL 383 99.1 35.7 119.2 108 4 -3 20 361 30
04/21/15 Video View Hundley, Nick COL Kimbrel, Craig SD 9 Coors Field JE 383 97.6 30.0 72.3 86 0 -2 11 373 15
04/22/15 Video View Dickerson, Corey COL Shields, James SD 1 Coors Field PL 440 106.2 25.1 92.6 85 1 -1 7 434 29
04/22/15 Video View Dickerson, Corey COL Benoit, Joaquin SD 8 Coors Field JE 429 105.9 25.2 98.4 81 0 -1 7 424 30
04/23/15 Video View Dickerson, Corey COL Ross, Tyson SD 5 Coors Field PL/L 412 99.2 33.2 84.1 114 3 -1 17 392 15
05/19/15 Video View Hundley, Nick COL De Fratus, Justin PHI 8 Coors Field JE 424 105.3 25.6 100.2 79 2 -3 7 419 30
05/21/15 Video View McKenry, Michael COL Williams, Jerome PHI 5 Coors Field JE 371 104.2 24.1 117.7 59 -1 -1 5 368 20
06/20/15 Video View Blackmon, Charlie COL Lohse, Kyle MIL 5 Coors Field PL 413 105.1 27.4 68.8 83 0 1 9 403 30
06/21/15 Video View Arenado, Nolan COL Garza, Matt MIL 4 Coors Field PL 404 102.1 37.4 110.1 134 1 -22 -22 397 30
06/06/15 Video View Rosario, Wilin COL Phelps, David MIA 3 Coors Field PL 457 109.7 25.9 99.6 92 2 0 10 446 30
06/06/15 Video View Gonzalez, Carlos COL Phelps, David MIA 4 Coors Field JE/L 427 102.6 27.2 86.1 89 1 0 9 417 23
06/06/15 Video View Rosario, Wilin COL Rienzo, Andre MIA 4 Coors Field PL 381 112.3 21.0 123.7 50 0 0 5 376 29
06/07/15 Video View Gonzalez, Carlos COL Capps, Carter MIA 7 Coors Field JE 397 104.3 23.2 77.1 64 2 0 3 392 12
06/01/15 Video View Arenado, Nolan COL Kershaw, Clayton LAD 4 Coors Field JE 432 106.7 23.5 95.3 74 1 0 3 427 27
06/02/15 Video View McKenry, Michael COL Thomas, Ian LAD 4 Coors Field PL 439 104.2 28.4 95.9 97 0 2 12 425 29
06/02/15 Video View Paulsen, Ben COL Hatcher, Chris LAD 7 Coors Field PL 409 105.5 23.9 76.3 68 2 1 4 403 25
06/02/15 Video View Tulowitzki, Troy COL Garcia, Yimi LAD 7 Coors Field PL 440 104.2 28.0 88.3 97 1 1 11 428 26
06/03/15 Video View Tulowitzki, Troy COL Bolsinger, Mike LAD 5 Coors Field PL 377 98.4 36.4 114.1 117 -3 -1 22 359 19
07/07/15 Video View Stubbs, Drew COL Heaney, Andrew LAA 3 Coors Field PL 400 101.2 28.9 74.7 91 -6 -1 11 395 28
06/17/15 Video View Gonzalez, Carlos COL Qualls, Chad HOU 9 Coors Field ND 418 103.9 34.5 71.1 124 -2 2 23 395 30
06/18/15 Video View Gonzalez, Carlos COL McHugh, Collin HOU 1 Coors Field PL 397 109.3 24.7 56.5 65 -1 1 7 391 30
05/10/15 Video View Turner, Justin LAD Oberg, Scott COL 8 Coors Field PL 425 105.2 25.8 79.8 84 2 -3 7 419 28
05/20/15 Video View Howard, Ryan PHI Butler, Eddie COL 3 Coors Field PL 454 107.4 29.5 94.9 115 0 -6 15 443 30
04/25/15 Video View Susac, Andrew SF De La Rosa, Jorge COL 4 Coors Field PL 385 111.2 22.2 124.7 54 -1 -1 6 381 30
04/25/15 Video View Maxwell, Justin SF Oberg, Scott COL 6 Coors Field JE/L 377 102.3 24.6 70.1 66 -3 0 5 375 20
05/06/15 Video View Trumbo, Mark ARI Matzek, Tyler COL 2 Coors Field PL 394 104.3 24.7 70.8 68 1 -1 5 389 24
05/06/15 Video View Hill, Aaron ARI Bergman, Christian COL 4 Coors Field PL 394 100.5 35.7 119.6 110 10 -2 21 367 30
05/06/15 Video View Goldschmidt, Paul ARI Lyles, Jordan COL 4 Coors Field PL 438 106.1 25.4 84.8 85 0 -1 7 432 27
05/21/15 Video View Howard, Ryan PHI De La Rosa, Jorge COL 5 Coors Field PL 416 103.1 29.3 103.9 98 -3 -3 13 408 30
04/11/15 Video View Coghlan, Chris CHC Kendrick, Kyle COL 3 Coors Field JE 430 104.9 25.5 95.9 82 1 0 6 423 27
04/11/15 Video View Castro, Starlin CHC Kendrick, Kyle COL 5 Coors Field ND 445 106.9 30.2 102.8 110 0 0 17 428 30
04/11/15 Video View Olt, Mike CHC Kendrick, Kyle COL 3 Coors Field PL 424 104.2 26.6 79.7 84 0 0 9 415 29
04/12/15 Video View Fowler, Dexter CHC Hawkins, LaTroy COL 9 Coors Field ND 415 104.3 29.4 72.8 99 -10 -1 13 409 30
04/20/15 Video View Venable, Will SD Hawkins, LaTroy COL 5 Coors Field JE 381 100.8 37.4 78.4 144 -15 -7 26 374 7
04/21/15 Video View Barmes, Clint SD Matzek, Tyler COL 3 Coors Field PL 409 104.1 25.3 103.8 73 1 -1 6 402 30
04/22/15 Video View Solarte, Yangervis SD Kendrick, Kyle COL 1 Coors Field JE 370 96.8 35.3 66.0 108 -2 -3 19 356 17
04/22/15 Video View Myers, Wil SD Kendrick, Kyle COL 6 Coors Field PL 437 105.9 24.8 92.5 83 2 -1 6 431 29
04/24/15 Video View Maxwell, Justin SF Butler, Eddie COL 2 Coors Field ND 447 115.5 22.0 104.4 70 0 -1 4 443 30
05/22/15 Video View Belt, Brandon SF Kendrick, Kyle COL 6 Coors Field ND 437 111.2 33.7 64.3 132 -7 -6 26 421 30
05/22/15 Video View Duffy, Matt SF Bergman, Christian COL 9 Coors Field PL 400 101.9 32.3 114.0 102 0 -3 16 386 30
06/01/15 Video View Ethier, Andre LAD Kendrick, Kyle COL 2 Coors Field PL 451 108.8 24.0 87.1 81 0 0 5 445 29
06/01/15 Video View Rollins, Jimmy LAD Kendrick, Kyle COL 2 Coors Field PL 408 101.2 28.6 76.1 87 0 1 11 397 26
06/01/15 Video View Pederson, Joc LAD Friedrich, Christian COL 6 Coors Field PL 450 109.4 23.4 94.8 78 1 0 5 444 29
06/01/15 Video View Kendrick, Howard LAD Bergman, Christian COL 8 Coors Field PL 437 105.8 25.3 85.2 83 0 0 6 430 27
06/02/15 Video View Pederson, Joc LAD De La Rosa, Jorge COL 3 Coors Field ND 467 109.2 29.1 81.2 110 0 3 16 448 30
06/02/15 Video View Hernandez, Enrique LAD Hale, David COL 1 Coors Field ND 416 109.0 24.2 68.9 70 2 1 6 408 30
06/02/15 Video View Pederson, Joc LAD Hale, David COL 3 Coors Field ND 480 110.8 27.0 92.1 105 1 3 13 464 30
06/02/15 Video View Gonzalez, Adrian LAD Hale, David COL 3 Coors Field PL 419 101.3 29.8 79.6 98 1 2 13 404 22
06/02/15 Video View Guerrero, Alex LAD Betancourt, Rafael COL 9 Coors Field JE 423 102.0 26.8 90.0 86 0 1 8 414 20
06/03/15 Video View Pederson, Joc LAD Oberg, Scott COL 8 Coors Field PL 433 108.1 25.7 104.6 82 0 0 8 426 30
06/05/15 Video View Stanton, Giancarlo MIA Butler, Eddie COL 3 Coors Field ND 484 113.6 26.1 98.3 101 0 0 13 471 30
06/07/15 Video View Hechavarria, Adeiny MIA Logan, Boone COL 10 Coors Field PL 438 104.0 27.6 90.6 95 1 1 10 427 25
06/08/15 Video View Wong, Kolten STL Hale, David COL 4 Coors Field ND 418 106.5 27.6 65.8 81 3 1 10 405 30
06/08/15 Video View Jay, Jon STL Hale, David COL 6 Coors Field PL 406 101.2 28.9 71.8 84 4 1 10 391 26
06/09/15 Video View Peralta, Jhonny STL De La Rosa, Jorge COL 6 Coors Field ND 426 104.0 29.4 74.4 94 4 0 13 410 29
06/09/15 Video View Bourjos, Peter STL Logan, Boone COL 8 Coors Field PL 450 110.9 22.7 95.8 74 0 1 4 446 30
06/10/15 Video View Grichuk, Randal STL Kahnle, Tommy COL 8 Coors Field PL 411 102.4 31.7 75.9 113 -12 1 17 402 29
06/17/15 Video View Correa, Carlos HOU Kendrick, Kyle COL 1 Coors Field ND 428 110.3 27.4 120.2 81 1 2 11 415 30
06/17/15 Video View Tucker, Preston HOU Kendrick, Kyle COL 5 Coors Field JE 434 105.2 25.8 83.7 84 1 1 7 425 26
06/17/15 Video View Marisnick, Jake HOU Friedrich, Christian COL 6 Coors Field JE 431 105.4 24.0 91.8 76 0 1 4 426 25
06/17/15 Video View Carter, Chris HOU Axford, John COL 9 Coors Field PL 419 104.4 25.1 80.4 77 1 1 6 412 27
06/18/15 Video View Tucker, Preston HOU Hale, David COL 1 Coors Field JE 375 99.4 29.5 61.2 79 -2 0 10 367 25
06/18/15 Video View Santana, Domingo HOU Oberg, Scott COL 8 Coors Field JE 407 103.4 24.8 78.3 72 1 -4 1 405 25
06/19/15 Video View Braun, Ryan MIL De La Rosa, Jorge COL 1 Coors Field JE 430 104.2 25.0 93.9 75 2 2 6 420 26
06/19/15 Video View Ramirez, Aramis MIL De La Rosa, Jorge COL 1 Coors Field JE/L 381 94.7 35.3 74.4 107 3 4 19 355 0
06/20/15 Video View Lind, Adam MIL Bettis, Chad COL 6 Coors Field PL 397 98.7 34.9 108.0 113 2 4 20 371 20
06/23/15 Video View Castillo, Welington ARI Kendrick, Kyle COL 2 Coors Field PL 451 109.4 23.5 86.4 76 0 1 5 445 29
06/23/15 Video View Ahmed, Nick ARI Kendrick, Kyle COL 2 Coors Field PL 396 98.8 32.2 114.1 92 9 2 15 372 20
06/23/15 Video View Pollock, A.J. ARI Kendrick, Kyle COL 5 Coors Field PL 407 100.3 28.5 79.8 88 -1 1 10 397 23
06/24/15 Video View Goldschmidt, Paul ARI Hale, David COL 5 Coors Field JE 432 103.8 27.9 88.0 101 -5 0 11 426 26
07/07/15 Video View Pujols, Albert LAA Bettis, Chad COL 1 Coors Field PL 421 104.0 33.6 103.2 126 -6 -1 21 405 30
07/07/15 Video View Joyce, Matt LAA Bettis, Chad COL 2 Coors Field PL 434 104.7 25.7 88.6 85 0 -1 7 427 26
07/07/15 Video View Trout, Mike LAA Bettis, Chad COL 2 Coors Field ND 417 119.7 21.0 126.4 55 -2 -1 8 410 30
07/07/15 Video View Iannetta, Chris LAA Bettis, Chad COL 3 Coors Field JE 429 104.3 25.3 89.7 87 -3 -1 6 424 26
07/08/15 Video View Trout, Mike LAA Rusin, Chris COL 1 Coors Field PL 395 100.9 33.1 116.8 100 3 -2 17 378 30
07/08/15 Video View Trout, Mike LAA Rusin, Chris COL 6 Coors Field ND 471 115.5 21.4 94.9 78 -1 -1 3 467 30
07/10/15 Video View Johnson, Kelly ATL Laffey, Aaron COL 6 Coors Field PL 385 97.4 31.4 112.0 88 4 2 13 368 17
07/11/15 Video View Uribe, Juan ATL De La Rosa, Jorge COL 2 Coors Field JE 415 107.3 23.4 103.7 64 0 1 4 409 30
07/11/15 Video View Lavarnway, Ryan ATL De La Rosa, Jorge COL 3 Coors Field PL 430 106.9 24.0 81.9 74 0 1 5 425 29
07/21/15 Video View Choo, Shin-Soo TEX Kendrick, Kyle COL 4 Coors Field ND 430 112.1 23.5 71.6 71 -2 0 6 425 30
07/21/15 Video View Fielder, Prince TEX Flande, Yohan COL 6 Coors Field PL 439 106.6 24.4 88.1 81 0 0 5 434 28
07/22/15 Video View Odor, Rougned TEX De La Rosa, Jorge COL 2 Coors Field PL 397 100.8 36.9 69.8 128 0 4 26 368 22
07/24/15 Video View Votto, Joey CIN Axford, John COL 9 Coors Field JE 367 101.4 25.9 119.0 65 -3 1 7 363 16
07/25/15 Video View Frazier, Todd CIN Rusin, Chris COL 3 Coors Field JE 387 105.3 23.4 69.8 59 0 1 4 381 20
07/26/15 Video View Bruce, Jay CIN Kendrick, Kyle COL 3 Coors Field JE/L 369 98.4 30.1 57.5 77 -1 1 10 359 29
07/24/15 Video View Gonzalez, Carlos COL DeSclafani, Anthony CIN 6 Coors Field ND 421 108.9 28.6 57.9 85 -1 1 11 409 30
07/24/15 Video View Gonzalez, Carlos COL Hoover, J.J. CIN 8 Coors Field PL 420 101.4 29.5 82.6 98 -2 1 12 408 24
07/26/15 Video View Paulsen, Ben COL Lorenzen, Michael CIN 3 Coors Field ND 429 110.0 24.7 72.5 79 -7 2 7 424 30
07/26/15 Video View Arenado, Nolan COL Lorenzen, Michael CIN 3 Coors Field JE 391 112.7 20.1 111.7 51 -1 1 4 387 23
07/26/15 Video View Gonzalez, Carlos COL Axelrod, Dylan CIN 3 Coors Field PL 432 104.0 27.5 85.0 97 -6 2 10 424 26
07/26/15 Video View Paulsen, Ben COL Axelrod, Dylan CIN 4 Coors Field PL 405 103.9 25.7 73.8 73 0 1 7 398 27
07/26/15 Video View Gonzalez, Carlos COL Axelrod, Dylan CIN 5 Coors Field PL 404 106.0 37.8 70.6 152 -19 7 33 379 30
04/10/15 Video View Morneau, Justin COL Schlitter, Brian CHC 6 Coors Field JE 405 102.6 26.2 103.3 76 0 -1 7 399 30
04/11/15 Video View Arenado, Nolan COL Hammel, Jason CHC 2 Coors Field ND 434 106.4 31.0 108.4 110 -1 0 18 417 30
07/09/15 Video View Stubbs, Drew COL Brigham, Jake ATL 2 Coors Field PL 409 105.4 24.1 77.4 71 -1 0 4 406 28
07/10/15 Video View Gonzalez, Carlos COL Miller, Shelby ATL 5 Coors Field PL 437 106.4 24.1 93.4 75 2 1 5 430 25
07/11/15 Video View Gonzalez, Carlos COL Wisler, Matt ATL 1 Coors Field PL 438 105.7 24.5 88.2 76 3 1 5 429 26
07/12/15 Video View Tulowitzki, Troy COL Carpenter, David ATL 6 Coors Field JE/L 409 99.4 30.2 102.9 91 4 3 13 390 20
07/12/15 Video View Stubbs, Drew COL Carpenter, David ATL 7 Coors Field JE 409 99.7 34.5 102.2 118 0 5 21 384 14
05/06/15 Video View Morneau, Justin COL Collmenter, Josh ARI 5 Coors Field JE 431 102.8 29.3 86.7 103 1 -1 12 419 26
05/06/15 Video View Hundley, Nick COL Collmenter, Josh ARI 7 Coors Field PL 415 101.8 29.9 102.8 97 0 -1 13 402 30
05/06/15 Video View Stubbs, Drew COL Collmenter, Josh ARI 8 Coors Field PL 435 103.2 29.4 87.4 105 1 -1 13 422 26
06/23/15 Video View Arenado, Nolan COL Anderson, Chase ARI 4 Coors Field ND 412 107.3 35.3 109.2 143 -29 2 28 402 30
06/23/15 Video View Arenado, Nolan COL Anderson, Chase ARI 5 Coors Field PL 416 101.9 33.5 102.4 119 -3 1 20 397 30
06/23/15 Video View Rosario, Wilin COL Anderson, Chase ARI 5 Coors Field PL 422 104.5 33.2 104.3 125 -12 1 21 408 30
06/23/15 Video View LeMahieu, DJ COL Hernandez, David ARI 7 Coors Field PL 425 113.4 21.3 105.0 62 0 0 3 421 30
06/23/15 Video View Barnes, Brandon COL Collmenter, Josh ARI 8 Coors Field PL 403 103.7 33.6 112.4 118 -16 1 20 394 30
06/24/15 Video View Hundley, Nick COL Webster, Allen ARI 2 Coors Field JE 432 107.9 21.5 90.1 72 1 0 1 429 26
06/25/15 Video View Arenado, Nolan COL De La Rosa, Rubby ARI 6 Coors Field PL 447 107.3 27.1 101.4 90 4 2 11 432 30
06/25/15 Video View Tulowitzki, Troy COL Hudson, Daniel ARI 8 Coors Field PL 400 97.9 32.1 77.0 100 0 3 15 381 14


About HitTracker | Contact Us
© 2006-2015 HitTrackerOnline